createdAt,value
2022-08-29T00:03:24.257Z,18.00
2022-08-29T00:08:25.862Z,17.93
2022-08-29T00:13:27.728Z,17.92
2022-08-29T00:18:29.404Z,17.91
2022-08-29T00:23:31.040Z,17.89
2022-08-29T00:28:32.702Z,17.89
2022-08-29T00:33:34.280Z,17.67
2022-08-29T00:38:36.916Z,17.70
2022-08-29T00:43:38.474Z,17.69
2022-08-29T00:48:41.401Z,17.70
2022-08-29T00:53:45.209Z,17.75
2022-08-29T00:58:59.457Z,17.76
2022-08-29T01:04:01.072Z,17.68
2022-08-29T01:09:03.373Z,17.80
2022-08-29T01:14:05.187Z,17.66
2022-08-29T01:19:16.143Z,17.71
2022-08-29T01:24:23.551Z,17.65
2022-08-29T01:29:25.144Z,17.62
2022-08-29T01:34:29.201Z,17.54
2022-08-29T01:39:34.224Z,17.55
2022-08-29T01:44:37.121Z,17.49
2022-08-29T01:49:40.846Z,17.29
2022-08-29T01:54:46.056Z,17.30
2022-08-29T01:59:47.770Z,17.42
2022-08-29T02:04:49.966Z,17.20
2022-08-29T02:09:52.286Z,17.31
2022-08-29T02:14:53.962Z,17.20
2022-08-29T02:19:55.500Z,17.21
2022-08-29T02:24:57.102Z,17.22
2022-08-29T02:29:59.448Z,17.23
2022-08-29T02:35:01.445Z,17.00
2022-08-29T02:40:06.812Z,17.19
2022-08-29T02:45:08.851Z,16.90
2022-08-29T02:50:13.700Z,16.89
2022-08-29T02:55:16.942Z,17.04
2022-08-29T03:00:23.260Z,17.05
2022-08-29T03:05:27.854Z,17.05
2022-08-29T03:10:29.663Z,16.90
2022-08-29T03:15:31.451Z,16.78
2022-08-29T03:20:35.138Z,16.82
2022-08-29T03:25:36.813Z,16.68
2022-08-29T03:30:38.497Z,16.84
2022-08-29T03:35:40.172Z,16.77
2022-08-29T03:40:42.366Z,16.63
2022-08-29T03:45:44.435Z,16.59
2022-08-29T03:50:46.066Z,16.45
2022-08-29T03:55:47.798Z,16.61
2022-08-29T04:00:49.379Z,16.62
2022-08-29T04:05:51.076Z,16.49
2022-08-29T04:10:56.987Z,16.42
2022-08-29T04:15:58.598Z,16.49
2022-08-29T04:21:03.048Z,16.40
2022-08-29T04:26:27.155Z,16.48
2022-08-29T04:31:26.465Z,16.44
2022-08-29T04:36:28.749Z,16.35
2022-08-29T04:41:32.961Z,16.45
2022-08-29T04:46:35.142Z,16.58
2022-08-29T04:51:36.818Z,16.70
2022-08-29T04:56:39.284Z,16.73
2022-08-29T05:01:47.106Z,16.82
2022-08-29T05:06:48.703Z,16.93
2022-08-29T05:11:50.343Z,16.87
2022-08-29T05:16:52.140Z,17.04
2022-08-29T05:21:57.904Z,17.27
2022-08-29T05:26:59.966Z,17.35
2022-08-29T05:32:02.428Z,17.49
2022-08-29T05:37:06.786Z,17.60
2022-08-29T05:42:09.713Z,17.74
2022-08-29T05:47:13.577Z,18.07
2022-08-29T05:52:16.617Z,18.22
2022-08-29T05:57:21.054Z,18.39
2022-08-29T06:02:23.128Z,18.40
2022-08-29T06:07:24.844Z,18.55
2022-08-29T06:12:26.376Z,18.78
2022-08-29T06:17:28.094Z,18.94
2022-08-29T06:22:29.740Z,19.09
2022-08-29T06:27:31.531Z,19.07
2022-08-29T06:32:33.349Z,19.25
2022-08-29T06:37:34.918Z,19.39
2022-08-29T06:42:36.475Z,19.59
2022-08-29T06:47:41.059Z,19.54
2022-08-29T06:52:43.109Z,19.64
2022-08-29T06:57:48.628Z,19.55
2022-08-29T07:02:52.852Z,19.57
2022-08-29T07:07:54.674Z,19.66
2022-08-29T07:12:56.367Z,19.61
2022-08-29T07:18:10.148Z,19.65
2022-08-29T07:23:12.119Z,19.83
2022-08-29T07:28:13.842Z,19.73
2022-08-29T07:33:17.287Z,19.84
2022-08-29T07:38:18.871Z,19.86
2022-08-29T07:43:22.991Z,19.75
2022-08-29T07:48:26.772Z,19.96
2022-08-29T07:53:28.417Z,19.96
2022-08-29T07:58:31.443Z,19.89
2022-08-29T08:03:33.945Z,19.95
2022-08-29T08:08:35.660Z,19.96
2022-08-29T08:13:37.844Z,19.87
2022-08-29T08:18:40.303Z,19.91
2022-08-29T08:23:42.143Z,19.97
2022-08-29T08:28:44.125Z,20.04
2022-08-29T08:33:46.252Z,20.05
2022-08-29T08:38:48.949Z,20.08
2022-08-29T08:43:54.392Z,20.02
2022-08-29T08:48:57.576Z,19.97
2022-08-29T08:53:59.423Z,19.99
2022-08-29T08:59:05.250Z,20.04
2022-08-29T09:04:16.698Z,20.08
2022-08-29T09:09:36.485Z,20.03
2022-08-29T09:14:58.360Z,20.14
2022-08-29T09:20:01.558Z,20.12
2022-08-29T09:25:06.889Z,20.03
2022-08-29T09:30:13.939Z,20.17
2022-08-29T09:35:24.451Z,20.22
2022-08-29T09:40:41.548Z,20.20
2022-08-29T09:46:02.447Z,20.19
2022-08-29T09:51:14.758Z,20.27
2022-08-29T09:56:20.570Z,20.25
2022-08-29T10:01:28.127Z,20.27
2022-08-29T10:06:33.777Z,20.27
2022-08-29T10:11:42.177Z,20.31
2022-08-29T10:16:50.299Z,20.30
2022-08-29T10:21:57.843Z,20.26
2022-08-29T10:27:02.869Z,20.39
2022-08-29T10:32:13.472Z,20.36
2022-08-29T10:37:35.207Z,20.31
2022-08-29T10:42:39.953Z,20.43
2022-08-29T10:47:52.895Z,20.46
2022-08-29T10:52:54.503Z,20.47
2022-08-29T10:58:05.358Z,20.51
2022-08-29T11:04:06.063Z,20.54
2022-08-29T11:09:18.859Z,20.55
2022-08-29T11:14:36.543Z,20.62
2022-08-29T11:19:52.439Z,20.64
2022-08-29T11:25:09.926Z,20.75
2022-08-29T11:30:21.296Z,20.73
2022-08-29T11:35:41.556Z,20.75
2022-08-29T11:46:42.313Z,20.85
2022-08-29T11:51:43.971Z,20.89
2022-08-29T11:56:46.223Z,20.89
2022-08-29T12:01:47.760Z,20.99
2022-08-29T12:07:01.292Z,21.08
2022-08-29T12:12:05.754Z,21.14
2022-08-29T12:17:10.722Z,21.21
2022-08-29T12:22:51.153Z,21.19
2022-08-29T12:28:20.915Z,21.21
2022-08-29T12:33:41.225Z,21.30
2022-08-29T12:39:04.847Z,21.33
2022-08-29T12:44:10.726Z,21.45
2022-08-29T12:49:26.765Z,21.44
2022-08-29T12:54:37.805Z,21.39
2022-08-29T12:59:44.407Z,21.43
2022-08-29T13:04:46.100Z,21.45
2022-08-29T13:09:57.194Z,21.49
2022-08-29T13:15:01.614Z,21.55
2022-08-29T13:20:40.807Z,21.59
2022-08-29T13:26:05.637Z,21.65
2022-08-29T13:31:16.026Z,21.68
2022-08-29T13:36:47.046Z,21.72
2022-08-29T13:42:01.851Z,21.71
2022-08-29T13:47:16.076Z,21.81
2022-08-29T13:52:18.627Z,21.84
2022-08-29T13:57:25.045Z,21.92
2022-08-29T14:02:27.167Z,22.02
2022-08-29T14:07:31.054Z,22.08
2022-08-29T14:12:33.643Z,22.08
2022-08-29T14:17:35.823Z,22.17
2022-08-29T14:22:37.619Z,22.16
2022-08-29T14:27:39.226Z,22.11
2022-08-29T14:32:41.503Z,22.16
2022-08-29T14:37:43.286Z,22.20
2022-08-29T14:42:45.216Z,22.21
2022-08-29T14:47:47.256Z,22.18
2022-08-29T14:52:50.210Z,22.09
2022-08-29T14:57:51.883Z,22.00
2022-08-29T15:02:54.207Z,22.00
2022-08-29T15:07:56.382Z,21.92
2022-08-29T15:12:58.021Z,21.97
2022-08-29T15:18:01.754Z,21.95
2022-08-29T15:23:03.599Z,21.91
2022-08-29T15:28:05.842Z,21.90
2022-08-29T15:33:07.432Z,21.89
2022-08-29T15:38:09.326Z,21.92
2022-08-29T15:43:11.215Z,21.96
2022-08-29T15:48:12.859Z,21.98
2022-08-29T15:53:15.892Z,21.94
2022-08-29T15:58:17.490Z,21.91
2022-08-29T16:03:19.136Z,21.86
2022-08-29T16:08:20.713Z,21.91
2022-08-29T16:13:29.386Z,21.94
2022-08-29T16:18:30.931Z,21.93
2022-08-29T16:23:33.066Z,21.91
2022-08-29T16:28:35.009Z,21.82
2022-08-29T16:33:36.602Z,21.83
2022-08-29T16:38:39.573Z,21.76
2022-08-29T16:43:41.935Z,21.74
2022-08-29T16:48:43.720Z,21.69
2022-08-29T16:53:45.296Z,21.65
2022-08-29T16:59:01.736Z,21.61
2022-08-29T17:04:06.159Z,21.56
2022-08-29T17:09:09.035Z,21.51
2022-08-29T17:14:11.958Z,21.47
2022-08-29T17:19:15.067Z,21.42
2022-08-29T17:24:16.694Z,21.38
2022-08-29T17:29:18.352Z,21.37
2022-08-29T17:34:20.147Z,21.29
2022-08-29T17:39:21.733Z,21.24
2022-08-29T17:44:24.586Z,21.21
2022-08-29T17:49:27.043Z,21.15
2022-08-29T17:54:29.513Z,20.98
2022-08-29T17:59:33.746Z,21.04
2022-08-29T18:04:35.704Z,20.98
2022-08-29T18:09:37.303Z,20.97
2022-08-29T18:14:38.991Z,20.96
2022-08-29T18:19:41.131Z,20.94
2022-08-29T18:24:42.756Z,20.80
2022-08-29T18:29:45.389Z,20.77
2022-08-29T18:34:47.699Z,20.71
2022-08-29T18:39:49.306Z,20.58
2022-08-29T18:44:50.970Z,20.68
2022-08-29T18:50:11.167Z,20.53
2022-08-29T18:55:15.771Z,20.47
2022-08-29T19:00:18.245Z,20.40
2022-08-29T19:05:20.742Z,20.29
2022-08-29T19:10:22.639Z,20.25
2022-08-29T19:15:26.282Z,20.13
2022-08-29T19:20:46.753Z,20.15
2022-08-29T19:25:48.493Z,20.06
2022-08-29T19:30:50.220Z,20.07
2022-08-29T19:35:53.646Z,19.93
2022-08-29T19:40:58.305Z,19.81
2022-08-29T19:46:01.438Z,19.80
2022-08-29T19:51:08.886Z,19.73
2022-08-29T19:56:12.725Z,19.72
2022-08-29T20:01:14.485Z,19.67
2022-08-29T20:06:17.167Z,19.68
2022-08-29T20:11:24.150Z,19.58
2022-08-29T20:16:30.230Z,19.46
2022-08-29T20:21:33.643Z,19.46
2022-08-29T20:26:36.401Z,19.56
2022-08-29T20:31:38.770Z,19.56
2022-08-29T20:36:59.331Z,19.29
2022-08-29T20:42:02.134Z,19.36
2022-08-29T20:47:05.893Z,19.23
2022-08-29T20:52:07.614Z,19.18
2022-08-29T20:57:10.234Z,19.11
2022-08-29T21:02:16.584Z,19.13
2022-08-29T21:07:18.226Z,18.97
2022-08-29T21:12:20.770Z,19.02
2022-08-29T21:17:22.623Z,18.97
2022-08-29T21:22:25.172Z,18.79
2022-08-29T21:27:27.070Z,18.76
2022-08-29T21:32:28.640Z,18.74
2022-08-29T21:37:30.240Z,18.70
2022-08-29T21:42:32.075Z,18.62
2022-08-29T21:47:33.632Z,18.60
2022-08-29T21:52:35.385Z,18.51
2022-08-29T21:57:52.022Z,18.53
2022-08-29T22:02:54.574Z,18.36
2022-08-29T22:07:56.813Z,18.44
2022-08-29T22:12:59.941Z,18.38
2022-08-29T22:18:01.693Z,18.07
2022-08-29T22:23:04.425Z,18.14
2022-08-29T22:28:06.276Z,18.13
2022-08-29T22:33:08.183Z,18.00
2022-08-29T22:38:09.835Z,17.99
2022-08-29T22:43:12.222Z,18.01
2022-08-29T22:48:19.136Z,17.93
2022-08-29T22:53:20.694Z,17.98
2022-08-29T22:58:25.675Z,17.95
2022-08-29T23:03:27.438Z,17.66
2022-08-29T23:08:29.181Z,17.83
2022-08-29T23:13:31.459Z,17.79
2022-08-29T23:18:33.195Z,17.76
2022-08-29T23:23:35.351Z,17.61
2022-08-29T23:28:37.035Z,17.69
2022-08-29T23:33:38.613Z,17.50
2022-08-29T23:38:40.550Z,17.63
2022-08-29T23:43:42.727Z,17.57
2022-08-29T23:48:44.966Z,17.41
2022-08-29T23:53:47.442Z,17.52
2022-08-29T23:58:49.098Z,17.52
